^^
Meteo Knjazevac Station Historical Data
Daily Summary for April 24, 2021 Units:  English    Metric   Both
Daily Weekly Monthly Yearly Custom
  High: Low: Average:
Temperature: 87.6 °F 62.8 °F 71.4 °F
Dew Point: 65.9 °F 52.8 °F 60 °F
Humidity: 84% 44% 69%
Wind Speed: 5mph 0mph 2mph
Wind Gust: 12mph - -
Wind- - SW
Pressure: 30.08 in 30.00 in -
Precipitation: 0.00 in    
Historical Graphs
 
 
Tabular Data for April 24, 2021
Time Temperature Dew Point Pressure Wind Wind Speed Wind Gust Humidity Rainfall Rate (Hourly) solar Conditions
00:00 66 °F 53.9 °F 30.02 in WNW 1 mph 2 mph 65% 0.00 in 0 W/m2
00:10 65.7 °F 54.4 °F 30.02 in Calm   2 mph 67% 0.00 in 0 W/m2
00:20 65.5 °F 54.2 °F 30.02 in East 1 mph 3 mph 67% 0.00 in 0 W/m2
00:30 65.1 °F 54.3 °F 30.02 in North 1 mph 3 mph 68% 0.00 in 0 W/m2
00:40 64.8 °F 54.3 °F 30.02 in Calm   2 mph 69% 0.00 in 0 W/m2
00:50 64.5 °F 53.7 °F 30.02 in SSE 1 mph 3 mph 68% 0.00 in 0 W/m2
01:00 64 °F 53.6 °F 30.02 in Calm   2 mph 69% 0.00 in 0 W/m2
01:10 63.7 °F 53.3 °F 30.02 in NNE 2 mph 3 mph 69% 0.00 in 0 W/m2
01:20 63.5 °F 53.5 °F 30.02 in Calm   2 mph 70% 0.00 in 0 W/m2
01:30 63.1 °F 53.2 °F 30.03 in WSW 2 mph 3 mph 70% 0.00 in 0 W/m2
01:40 62.8 °F 52.8 °F 30.03 in WSW 2 mph 4 mph 70% 0.00 in 0 W/m2
01:50 62.8 °F 52.8 °F 30.03 in WNW 2 mph 6 mph 70% 0.00 in 0 W/m2
02:00 62.8 °F 53.6 °F 30.03 in West 1 mph 3 mph 72% 0.00 in 0 W/m2
02:10 63 °F 53 °F 30.03 in NNW 1 mph 2 mph 70% 0.00 in 0 W/m2
02:20 63 °F 53 °F 30.03 in North 1 mph 2 mph 70% 0.00 in 0 W/m2
02:30 63.1 °F 53.2 °F 30.03 in NNE 5 mph 7 mph 70% 0.00 in 0 W/m2
02:40 63 °F 53 °F 30.04 in NW 3 mph 7 mph 70% 0.00 in 0 W/m2
02:50 63.3 °F 53.4 °F 30.04 in WNW 2 mph 7 mph 70% 0.00 in 0 W/m2
03:00 63.9 °F 54.7 °F 30.04 in WNW 2 mph 5 mph 72% 0.00 in 0 W/m2
03:10 64.2 °F 55.4 °F 30.04 in WSW 2 mph 6 mph 73% 0.00 in 0 W/m2
03:20 64.6 °F 57.2 °F 30.04 in WSW 3 mph 6 mph 77% 0.00 in 0 W/m2
03:30 64.9 °F 57.6 °F 30.04 in WSW 2 mph 5 mph 77% 0.00 in 0 W/m2
03:40 64.9 °F 56.8 °F 30.04 in WSW 1 mph 3 mph 75% 0.00 in 0 W/m2
03:50 64.9 °F 57.2 °F 30.04 in SSW 3 mph 6 mph 76% 0.00 in 0 W/m2
04:00 65.1 °F 58.1 °F 30.04 in SSW 2 mph 6 mph 78% 0.00 in 0 W/m2
04:10 65.5 °F 58.8 °F 30.04 in SSE 2 mph 5 mph 79% 0.00 in 0 W/m2
04:20 65.8 °F 59.5 °F 30.04 in SE 1 mph 5 mph 80% 0.00 in 0 W/m2
04:30 65.9 °F 59.5 °F 30.04 in SSW 2 mph 5 mph 80% 0.00 in 0 W/m2
04:40 66 °F 59.7 °F 30.04 in South 2 mph 5 mph 80% 0.00 in 0 W/m2
04:50 66 °F 59.3 °F 30.04 in SW 2 mph 4 mph 79% 0.00 in 0 W/m2
05:00 65.5 °F 58.8 °F 30.04 in WSW 2 mph 5 mph 79% 0.00 in 0 W/m2
05:10 65.3 °F 59 °F 30.05 in West 2 mph 5 mph 80% 0.00 in 0 W/m2
05:20 65.3 °F 59.3 °F 30.05 in WSW 3 mph 6 mph 81% 0.00 in 0 W/m2
05:30 65.3 °F 59.3 °F 30.05 in WSW 2 mph 6 mph 81% 0.00 in 0 W/m2
05:40 65.3 °F 60 °F 30.05 in WSW 5 mph 12 mph 83% 0.00 in 0 W/m2
05:50 65.1 °F 59.8 °F 30.06 in SW 3 mph 8 mph 83% 0.00 in 4 W/m2
06:00 65.1 °F 59.8 °F 30.06 in SW 3 mph 7 mph 83% 0.00 in 11 W/m2
06:10 64.9 °F 59.7 °F 30.06 in WSW 2 mph 5 mph 83% 0.00 in 20 W/m2
06:20 64.8 °F 59.5 °F 30.07 in SW 3 mph 7 mph 83% 0.00 in 32 W/m2
06:30 64.8 °F 59.8 °F 30.07 in WSW 3 mph 8 mph 84% 0.00 in 46 W/m2
06:40 64.8 °F 59.6 °F 30.07 in SW 2 mph 6 mph 83% 0.00 in 63 W/m2
06:50 65 °F 59.7 °F 30.07 in Calm   6 mph 83% 0.00 in 81 W/m2
07:00 65.1 °F 59.8 °F 30.07 in Calm   2 mph 83% 0.00 in 102 W/m2
07:10 65.2 °F 59.9 °F 30.08 in Calm   2 mph 83% 0.00 in 123 W/m2
07:20 65.5 °F 59.8 °F 30.08 in North 1 mph 2 mph 82% 0.00 in 146 W/m2
07:30 65.7 °F 59.7 °F 30.08 in Calm   4 mph 81% 0.00 in 172 W/m2
07:40 66 °F 60 °F 30.08 in Calm   3 mph 81% 0.00 in 202 W/m2
07:50 66.3 °F 59.9 °F 30.08 in Calm   4 mph 80% 0.00 in 234 W/m2
08:00 66.7 °F 60.4 °F 30.08 in North 1 mph 3 mph 80% 0.00 in 266 W/m2
08:10 67.1 °F 60.7 °F 30.08 in SSW 1 mph 2 mph 80% 0.00 in 296 W/m2
08:20 67.6 °F 60.9 °F 30.08 in SE 1 mph 3 mph 79% 0.00 in 329 W/m2
08:30 68.1 °F 60.9 °F 30.08 in WSW 1 mph 3 mph 78% 0.00 in 358 W/m2
08:40 68.9 °F 61.4 °F 30.08 in Calm   5 mph 77% 0.00 in 380 W/m2
08:50 70 °F 62.1 °F 30.08 in WSW 2 mph 5 mph 76% 0.00 in 408 W/m2
09:00 71.1 °F 62.4 °F 30.08 in Calm   3 mph 74% 0.00 in 439 W/m2
09:10 72.1 °F 63 °F 30.08 in South 2 mph 5 mph 73% 0.00 in 483 W/m2
09:20 72.7 °F 63.1 °F 30.08 in NW 1 mph 6 mph 72% 0.00 in 506 W/m2
09:30 73.6 °F 63.2 °F 30.08 in NNW 1 mph 6 mph 70% 0.00 in 326 W/m2
09:40 74.1 °F 63.3 °F 30.08 in NW 2 mph 5 mph 69% 0.00 in 386 W/m2
09:50 74.7 °F 63.4 °F 30.08 in WNW 2 mph 6 mph 68% 0.00 in 479 W/m2
10:00 75.7 °F 64.4 °F 30.08 in WNW 2 mph 6 mph 68% 0.00 in 577 W/m2
10:10 76.3 °F 64.1 °F 30.08 in SW 3 mph 8 mph 66% 0.00 in 652 W/m2
10:20 76.7 °F 64.1 °F 30.08 in West 2 mph 9 mph 65% 0.00 in 705 W/m2
10:30 77.2 °F 64.5 °F 30.07 in SW 5 mph 7 mph 65% 0.00 in 729 W/m2
10:40 77.7 °F 64.1 °F 30.07 in SW 3 mph 9 mph 63% 0.00 in 743 W/m2
10:50 78.3 °F 63.2 °F 30.07 in WSW 5 mph 9 mph 60% 0.00 in 311 W/m2
11:00 78.6 °F 63.6 °F 30.07 in SW 5 mph 10 mph 60% 0.00 in 435 W/m2
11:10 79 °F 64.4 °F 30.06 in ESE 1 mph 7 mph 61% 0.00 in 790 W/m2
11:20 79.7 °F 64.1 °F 30.06 in SSW 5 mph 8 mph 59% 0.00 in 321 W/m2
11:30 80.2 °F 64.1 °F 30.06 in SSW 3 mph 8 mph 58% 0.00 in 808 W/m2
11:40 80.5 °F 64.3 °F 30.06 in SW 2 mph 9 mph 58% 0.00 in 823 W/m2
11:50 80.8 °F 64.6 °F 30.06 in SSW 3 mph 8 mph 58% 0.00 in 840 W/m2
12:00 81.3 °F 65.1 °F 30.05 in SW 5 mph 7 mph 58% 0.00 in 806 W/m2
12:10 81.5 °F 63.8 °F 30.05 in SW 2 mph 8 mph 55% 0.00 in 846 W/m2
12:20 81.7 °F 63.9 °F 30.05 in SW 5 mph 9 mph 55% 0.00 in 808 W/m2
12:30 82.2 °F 63.9 °F 30.04 in SSW 2 mph 9 mph 54% 0.00 in 865 W/m2
12:40 83.2 °F 64.8 °F 30.04 in SW 3 mph 7 mph 54% 0.00 in 864 W/m2
12:50 84 °F 64.5 °F 30.04 in Calm   7 mph 52% 0.00 in 862 W/m2
13:00 84.3 °F 64.7 °F 30.03 in NNE 2 mph 6 mph 52% 0.00 in 859 W/m2
13:10 84.9 °F 65.9 °F 30.03 in WSW 2 mph 8 mph 53% 0.00 in 853 W/m2
13:20 85.3 °F 64.5 °F 30.03 in SW 5 mph 7 mph 50% 0.00 in 835 W/m2
13:30 85.5 °F 64.7 °F 30.03 in WSW 2 mph 5 mph 50% 0.00 in 810 W/m2
13:40 85.8 °F 64.5 °F 30.03 in WSW 1 mph 9 mph 49% 0.00 in 791 W/m2
13:50 86 °F 63.4 °F 30.02 in SSW 2 mph 7 mph 47% 0.00 in 793 W/m2
14:00 86.4 °F 64.4 °F 30.02 in SW 2 mph 7 mph 48% 0.00 in 761 W/m2
14:10 86.7 °F 64.1 °F 30.01 in Calm   5 mph 47% 0.00 in 745 W/m2
14:20 87.2 °F 64.5 °F 30.01 in West 2 mph 6 mph 47% 0.00 in 730 W/m2
14:30 87.4 °F 62.8 °F 30.01 in South 3 mph 7 mph 44% 0.00 in 706 W/m2
14:40 87.4 °F 63.5 °F 30.00 in West 3 mph 6 mph 45% 0.00 in 682 W/m2
14:50 87.6 °F 63 °F 30.00 in SW 2 mph 6 mph 44% 0.00 in 667 W/m2
Knjazevac, Serbia
Compliments of Weather Underground - 2 mb